createdAt,value
2022-11-28T00:01:34.196Z,4.80
2022-11-28T00:04:01.533Z,4.70
2022-11-28T00:06:29.362Z,4.80
2022-11-28T00:08:59.554Z,4.70
2022-11-28T00:11:27.374Z,4.70
2022-11-28T00:13:54.862Z,5.00
2022-11-28T00:16:22.963Z,4.80
2022-11-28T00:18:54.935Z,4.80
2022-11-28T00:21:22.482Z,5.00
2022-11-28T00:23:49.964Z,5.10
2022-11-28T00:26:23.761Z,4.70
2022-11-28T00:28:51.036Z,4.70
2022-11-28T00:31:23.844Z,4.70
2022-11-28T00:33:51.380Z,4.80
2022-11-28T00:36:19.144Z,4.80
2022-11-28T00:38:46.167Z,4.80
2022-11-28T00:41:15.617Z,4.80
2022-11-28T00:43:44.181Z,4.80
2022-11-28T00:46:12.409Z,4.80
2022-11-28T00:48:39.704Z,4.80
2022-11-28T00:51:07.720Z,4.80
2022-11-28T00:53:34.876Z,4.70
2022-11-28T00:56:04.953Z,4.90
2022-11-28T00:58:33.033Z,4.70
2022-11-28T01:01:00.953Z,5.00
2022-11-28T01:03:27.786Z,4.90
2022-11-28T01:05:54.625Z,5.10
2022-11-28T01:08:21.439Z,5.00
2022-11-28T01:10:48.212Z,5.20
2022-11-28T01:13:15.145Z,5.10
2022-11-28T01:15:42.482Z,5.00
2022-11-28T01:18:09.899Z,4.90
2022-11-28T01:20:37.292Z,4.90
2022-11-28T01:23:04.762Z,4.80
2022-11-28T01:25:31.943Z,4.70
2022-11-28T01:27:58.806Z,4.60
2022-11-28T01:30:25.550Z,4.90
2022-11-28T01:32:52.331Z,4.50
2022-11-28T01:35:19.366Z,4.40
2022-11-28T01:37:46.297Z,4.30
2022-11-28T01:40:13.827Z,5.10
2022-11-28T01:42:40.634Z,4.30
2022-11-28T01:45:12.432Z,4.50
2022-11-28T01:47:40.000Z,4.20
2022-11-28T01:50:07.838Z,4.20
2022-11-28T01:52:38.336Z,4.10
2022-11-28T01:55:07.099Z,4.10
2022-11-28T01:57:34.549Z,4.10
2022-11-28T02:00:09.330Z,4.10
2022-11-28T02:02:41.298Z,4.10
2022-11-28T02:05:09.221Z,4.10
2022-11-28T02:07:37.155Z,4.00
2022-11-28T02:10:08.908Z,4.10
2022-11-28T02:13:03.309Z,4.10
2022-11-28T02:16:07.083Z,4.00
2022-11-28T02:18:56.203Z,4.00
2022-11-28T02:21:32.851Z,4.00
2022-11-28T02:24:24.442Z,3.90
2022-11-28T02:27:11.551Z,4.00
2022-11-28T02:29:56.921Z,3.90
2022-11-28T02:32:23.782Z,3.90
2022-11-28T02:35:22.180Z,3.90
2022-11-28T02:37:59.048Z,3.90
2022-11-28T02:40:50.045Z,3.80
2022-11-28T02:43:31.586Z,3.80
2022-11-28T02:46:11.932Z,3.80
2022-11-28T02:48:44.464Z,3.70
2022-11-28T02:51:28.657Z,3.70
2022-11-28T02:53:58.542Z,3.70
2022-11-28T02:56:26.021Z,3.70
2022-11-28T02:58:53.151Z,3.60
2022-11-28T03:01:30.982Z,3.60
2022-11-28T03:04:27.736Z,3.60
2022-11-28T03:07:54.189Z,3.60
2022-11-28T03:10:40.809Z,3.60
2022-11-28T03:13:23.704Z,3.60
2022-11-28T03:16:28.399Z,3.80
2022-11-28T03:19:01.335Z,4.10
2022-11-28T03:21:45.057Z,4.40
2022-11-28T03:24:35.404Z,4.80
2022-11-28T03:27:13.268Z,5.20
2022-11-28T03:29:54.355Z,5.60
2022-11-28T03:32:25.446Z,5.30
2022-11-28T03:35:01.924Z,5.30
2022-11-28T03:37:37.581Z,5.40
2022-11-28T03:40:11.549Z,5.40
2022-11-28T03:42:47.613Z,5.30
2022-11-28T03:45:20.212Z,5.50
2022-11-28T03:47:56.215Z,5.50
2022-11-28T03:50:38.032Z,5.60
2022-11-28T03:53:11.749Z,5.60
2022-11-28T03:55:45.841Z,5.50
2022-11-28T03:58:30.476Z,5.50
2022-11-28T04:01:16.454Z,5.50
2022-11-28T04:03:58.944Z,5.80
2022-11-28T04:06:46.050Z,5.50
2022-11-28T04:09:21.744Z,5.60
2022-11-28T04:11:54.666Z,5.50
2022-11-28T04:14:31.635Z,5.50
2022-11-28T04:17:08.904Z,5.50
2022-11-28T04:19:49.805Z,5.50
2022-11-28T04:22:38.001Z,5.60
2022-11-28T04:25:11.610Z,5.50
2022-11-28T04:27:44.111Z,5.60
2022-11-28T04:30:12.128Z,5.60
2022-11-28T04:32:43.893Z,5.50
2022-11-28T04:35:18.910Z,5.50
2022-11-28T04:37:49.381Z,5.50
2022-11-28T04:40:18.406Z,5.40
2022-11-28T04:42:53.719Z,5.40
2022-11-28T04:45:23.865Z,5.30
2022-11-28T04:47:50.764Z,5.30
2022-11-28T04:50:17.732Z,5.30
2022-11-28T04:52:54.100Z,5.40
2022-11-28T04:55:40.653Z,5.50
2022-11-28T04:58:11.338Z,5.60
2022-11-28T05:00:39.196Z,5.70
2022-11-28T05:03:06.680Z,5.80
2022-11-28T05:05:46.359Z,5.80
2022-11-28T05:08:13.515Z,5.90
2022-11-28T05:10:40.662Z,5.80
2022-11-28T05:13:07.391Z,5.90
2022-11-28T05:15:34.445Z,5.70
2022-11-28T05:18:01.119Z,5.70
2022-11-28T05:20:28.446Z,5.60
2022-11-28T05:22:55.376Z,5.60
2022-11-28T05:25:22.263Z,5.70
2022-11-28T05:27:49.940Z,5.60
2022-11-28T05:30:17.352Z,5.80
2022-11-28T05:32:44.782Z,5.50
2022-11-28T05:35:11.515Z,5.40
2022-11-28T05:37:38.419Z,5.40
2022-11-28T05:40:06.169Z,5.60
2022-11-28T05:42:35.065Z,5.70
2022-11-28T05:45:02.578Z,5.80
2022-11-28T05:47:33.607Z,5.80
2022-11-28T05:50:00.436Z,5.90
2022-11-28T05:52:32.478Z,5.80
2022-11-28T05:55:00.226Z,5.90
2022-11-28T05:57:29.929Z,5.90
2022-11-28T05:59:57.619Z,5.80
2022-11-28T06:02:24.764Z,5.80
2022-11-28T06:04:51.667Z,5.80
2022-11-28T06:07:19.987Z,5.80
2022-11-28T06:09:46.864Z,5.60
2022-11-28T06:12:13.809Z,5.60
2022-11-28T06:14:40.841Z,5.50
2022-11-28T06:17:07.745Z,5.40
2022-11-28T06:19:34.615Z,5.40
2022-11-28T06:22:01.452Z,5.40
2022-11-28T06:24:28.238Z,6.00
2022-11-28T06:26:55.335Z,5.30
2022-11-28T06:29:22.243Z,5.40
2022-11-28T06:31:49.549Z,5.40
2022-11-28T06:34:16.513Z,5.40
2022-11-28T06:36:44.456Z,5.20
2022-11-28T06:39:16.014Z,5.20
2022-11-28T06:41:44.511Z,5.20
2022-11-28T06:44:15.539Z,5.20
2022-11-28T06:46:43.101Z,5.20
2022-11-28T06:49:13.744Z,5.20
2022-11-28T06:51:41.648Z,5.10
2022-11-28T06:54:09.133Z,5.10
2022-11-28T06:56:35.955Z,5.00
2022-11-28T06:59:02.910Z,4.90
2022-11-28T07:01:32.430Z,5.20
2022-11-28T07:03:59.405Z,4.90
2022-11-28T07:06:27.848Z,4.90
2022-11-28T07:08:57.551Z,4.90
2022-11-28T07:11:28.106Z,4.80
2022-11-28T07:13:55.675Z,4.80
2022-11-28T07:16:25.065Z,4.80
2022-11-28T07:18:53.349Z,4.80
2022-11-28T07:21:20.808Z,4.90
2022-11-28T07:23:48.087Z,4.90
2022-11-28T07:26:17.535Z,4.90
2022-11-28T07:28:46.208Z,4.90
2022-11-28T07:31:19.064Z,5.00
2022-11-28T07:33:48.356Z,5.00
2022-11-28T07:36:18.506Z,5.20
2022-11-28T07:38:53.349Z,5.10
2022-11-28T07:41:26.000Z,5.10
2022-11-28T07:43:55.707Z,5.20
2022-11-28T07:46:23.349Z,5.20
2022-11-28T07:48:50.310Z,5.10
2022-11-28T07:51:26.483Z,5.20
2022-11-28T07:53:53.564Z,5.30
2022-11-28T07:56:23.388Z,5.50
2022-11-28T07:58:50.825Z,5.90
2022-11-28T08:01:23.849Z,5.80
2022-11-28T08:03:51.548Z,5.70
2022-11-28T08:06:20.127Z,5.60
2022-11-28T08:08:47.874Z,5.60
2022-11-28T08:11:16.662Z,5.70
2022-11-28T08:13:44.085Z,5.60
2022-11-28T08:16:23.860Z,5.80
2022-11-28T08:18:54.323Z,5.80
2022-11-28T08:21:26.714Z,6.10
2022-11-28T08:23:56.138Z,6.10
2022-11-28T08:26:28.917Z,6.50
2022-11-28T08:28:57.428Z,6.20
2022-11-28T08:31:43.754Z,6.30
2022-11-28T08:34:12.587Z,6.20
2022-11-28T08:36:39.678Z,6.30
2022-11-28T08:39:23.565Z,6.30
2022-11-28T08:41:51.815Z,6.30
2022-11-28T08:44:18.823Z,6.30
2022-11-28T08:46:45.552Z,6.70
2022-11-28T08:49:12.335Z,6.50
2022-11-28T08:51:39.078Z,6.50
2022-11-28T08:54:06.037Z,7.20
2022-11-28T08:56:32.743Z,6.60
2022-11-28T08:58:59.954Z,6.60
2022-11-28T09:01:27.199Z,6.70
2022-11-28T09:03:55.717Z,6.90
2022-11-28T09:06:24.164Z,6.70
2022-11-28T09:08:51.758Z,6.70
2022-11-28T09:11:20.793Z,6.80
2022-11-28T09:13:47.523Z,6.80
2022-11-28T09:16:15.435Z,6.80
2022-11-28T09:18:42.977Z,7.00
2022-11-28T09:21:14.261Z,6.90
2022-11-28T09:23:43.425Z,7.00
2022-11-28T09:26:18.939Z,7.00
2022-11-28T09:28:46.086Z,6.90
2022-11-28T09:31:16.593Z,7.00
2022-11-28T09:33:43.954Z,7.00
2022-11-28T09:36:13.119Z,7.00
2022-11-28T09:38:40.192Z,7.00
2022-11-28T09:41:36.216Z,7.10
2022-11-28T09:44:14.016Z,7.10
2022-11-28T09:46:42.438Z,7.10
2022-11-28T09:49:29.060Z,7.20
2022-11-28T09:52:23.743Z,7.20
2022-11-28T09:55:02.754Z,7.30
2022-11-28T09:57:50.313Z,7.40
2022-11-28T10:01:01.273Z,7.60
2022-11-28T10:04:02.090Z,7.50
2022-11-28T10:06:39.840Z,7.60
2022-11-28T10:09:34.455Z,7.80
2022-11-28T10:12:13.049Z,7.60
2022-11-28T10:15:22.320Z,7.80
2022-11-28T10:18:11.649Z,7.80
2022-11-28T10:20:42.253Z,7.90
2022-11-28T10:23:51.471Z,7.90
2022-11-28T10:26:41.417Z,7.80
2022-11-28T10:29:27.392Z,7.80
2022-11-28T10:31:58.623Z,7.90
2022-11-28T10:34:41.432Z,8.00
2022-11-28T10:37:24.047Z,8.00
2022-11-28T10:39:51.293Z,8.00
2022-11-28T10:42:25.979Z,8.20
2022-11-28T10:45:20.239Z,8.00
2022-11-28T10:47:50.008Z,8.00
2022-11-28T10:50:30.849Z,8.00
2022-11-28T10:53:19.922Z,8.10
2022-11-28T10:56:11.672Z,8.00
2022-11-28T10:58:47.766Z,8.10
2022-11-28T11:01:14.946Z,8.10
2022-11-28T11:03:42.021Z,8.30
2022-11-28T11:06:09.436Z,8.20
2022-11-28T11:08:38.536Z,8.30
2022-11-28T11:11:27.969Z,8.30
2022-11-28T11:14:07.588Z,8.20
2022-11-28T11:16:49.467Z,8.30
2022-11-28T11:19:37.396Z,8.30
2022-11-28T11:22:19.081Z,8.30
2022-11-28T11:25:14.426Z,8.50
2022-11-28T11:28:24.927Z,8.40
2022-11-28T11:31:00.191Z,8.50
2022-11-28T11:33:33.553Z,8.70
2022-11-28T11:36:02.403Z,8.60
2022-11-28T11:38:37.494Z,8.80
2022-11-28T11:41:29.365Z,8.80
2022-11-28T11:43:57.615Z,9.00
2022-11-28T11:46:24.431Z,8.90
2022-11-28T11:48:53.609Z,8.70
2022-11-28T11:51:20.705Z,8.70
2022-11-28T11:53:47.748Z,8.70
2022-11-28T11:56:15.041Z,8.60
2022-11-28T11:58:49.740Z,8.60
2022-11-28T12:01:18.705Z,8.50
2022-11-28T12:04:23.819Z,8.50
2022-11-28T12:06:58.552Z,8.50
2022-11-28T12:09:25.351Z,8.70
2022-11-28T12:12:17.240Z,8.60
2022-11-28T12:14:44.873Z,8.60
2022-11-28T12:17:48.346Z,8.50
2022-11-28T12:20:43.181Z,8.70
2022-11-28T12:23:40.619Z,8.70
2022-11-28T12:26:20.790Z,8.80
2022-11-28T12:29:06.499Z,8.80
2022-11-28T12:31:54.629Z,8.90
2022-11-28T12:34:35.231Z,8.60
2022-11-28T12:37:48.334Z,9.00
2022-11-28T12:40:28.984Z,8.90
2022-11-28T12:43:24.461Z,8.90
2022-11-28T12:46:26.868Z,8.90
2022-11-28T12:49:14.202Z,9.20
2022-11-28T12:52:02.047Z,8.90
2022-11-28T12:54:42.362Z,9.00
2022-11-28T12:57:22.704Z,8.90
2022-11-28T13:00:09.246Z,8.90
2022-11-28T13:02:57.679Z,8.80
2022-11-28T13:05:51.926Z,8.90
2022-11-28T13:08:27.736Z,9.10
2022-11-28T13:10:58.027Z,8.90
2022-11-28T13:14:05.651Z,8.90
2022-11-28T13:16:47.758Z,8.90
2022-11-28T13:19:39.281Z,8.90
2022-11-28T13:22:24.345Z,8.90
2022-11-28T13:25:24.933Z,9.00
2022-11-28T13:28:05.967Z,8.90
2022-11-28T13:30:58.594Z,8.90
2022-11-28T13:33:31.090Z,8.70
2022-11-28T13:35:59.993Z,8.70
2022-11-28T13:39:11.909Z,8.70
2022-11-28T13:45:19.050Z,8.70
2022-11-28T13:47:45.942Z,8.70
2022-11-28T13:50:32.448Z,8.70
2022-11-28T13:53:00.458Z,8.80
2022-11-28T13:55:51.644Z,8.90
2022-11-28T13:58:24.511Z,8.70
2022-11-28T14:01:17.766Z,8.60
2022-11-28T14:04:16.338Z,8.60
2022-11-28T14:06:47.225Z,8.60
2022-11-28T14:09:17.017Z,8.60
2022-11-28T14:12:28.381Z,8.70
2022-11-28T14:15:07.388Z,8.50
2022-11-28T14:17:49.442Z,8.50
2022-11-28T14:20:43.924Z,8.50
2022-11-28T14:23:50.977Z,8.50
2022-11-28T14:26:40.415Z,8.40
2022-11-28T14:29:20.266Z,8.40
2022-11-28T14:32:06.968Z,8.40
2022-11-28T14:34:45.505Z,8.40
2022-11-28T14:37:21.924Z,8.30
2022-11-28T14:39:49.892Z,8.30
2022-11-28T14:42:36.766Z,8.60
2022-11-28T14:45:40.131Z,8.30
2022-11-28T14:48:30.099Z,8.30
2022-11-28T14:51:01.688Z,8.30
2022-11-28T14:53:58.551Z,8.30
2022-11-28T14:56:27.989Z,8.20
2022-11-28T14:59:01.862Z,8.20
2022-11-28T15:02:13.128Z,8.20
2022-11-28T15:04:42.988Z,8.20
2022-11-28T15:07:31.074Z,8.20
2022-11-28T15:10:07.516Z,8.20
2022-11-28T15:12:51.121Z,8.20
2022-11-28T15:15:20.380Z,8.40
2022-11-28T15:17:51.405Z,8.30
2022-11-28T15:20:31.768Z,8.40
2022-11-28T15:22:58.675Z,8.10
2022-11-28T15:25:35.417Z,8.00
2022-11-28T15:28:16.191Z,8.00
2022-11-28T15:30:47.969Z,8.00
2022-11-28T15:33:14.820Z,8.00
2022-11-28T15:35:58.343Z,7.90
2022-11-28T15:38:27.564Z,7.90
2022-11-28T15:40:55.738Z,8.00
2022-11-28T15:43:24.115Z,7.80
2022-11-28T15:45:52.946Z,7.80
2022-11-28T15:48:39.881Z,7.80
2022-11-28T15:51:07.620Z,7.70
2022-11-28T15:53:40.792Z,7.70
2022-11-28T15:56:09.401Z,7.70
2022-11-28T15:58:36.953Z,7.70
2022-11-28T16:01:20.412Z,7.80
2022-11-28T16:03:49.947Z,7.70
2022-11-28T16:06:18.586Z,7.60
2022-11-28T16:08:55.594Z,7.60
2022-11-28T16:11:25.450Z,7.60
2022-11-28T16:13:54.251Z,7.60
2022-11-28T16:16:26.303Z,7.60
2022-11-28T16:18:59.195Z,7.50
2022-11-28T16:21:30.344Z,7.50
2022-11-28T16:23:57.381Z,7.50
2022-11-28T16:26:28.731Z,7.40
2022-11-28T16:29:07.239Z,7.50
2022-11-28T16:31:35.390Z,7.50
2022-11-28T16:34:03.205Z,7.40
2022-11-28T16:36:31.135Z,7.40
2022-11-28T16:39:16.366Z,7.50
2022-11-28T16:41:54.811Z,7.40
2022-11-28T16:44:24.958Z,7.40
2022-11-28T16:46:57.029Z,7.40
2022-11-28T16:49:32.349Z,7.40
2022-11-28T16:52:21.977Z,7.40
2022-11-28T16:54:50.027Z,7.40
2022-11-28T16:57:17.454Z,7.60
2022-11-28T16:59:45.110Z,7.30
2022-11-28T17:02:18.368Z,7.30
2022-11-28T17:04:46.980Z,7.30
2022-11-28T17:07:19.569Z,7.30
2022-11-28T17:09:48.010Z,7.30
2022-11-28T17:12:27.288Z,7.20
2022-11-28T17:14:54.937Z,7.20
2022-11-28T17:17:23.483Z,7.20
2022-11-28T17:19:50.935Z,7.20
2022-11-28T17:22:23.756Z,7.20
2022-11-28T17:24:51.990Z,6.80
2022-11-28T17:27:18.772Z,7.30
2022-11-28T17:29:45.794Z,7.10
2022-11-28T17:32:14.212Z,7.10
2022-11-28T17:34:42.167Z,7.10
2022-11-28T17:37:10.054Z,7.30
2022-11-28T17:39:36.974Z,7.00
2022-11-28T17:42:04.447Z,7.10
2022-11-28T17:44:33.746Z,7.10
2022-11-28T17:47:02.248Z,7.00
2022-11-28T17:49:30.724Z,7.00
2022-11-28T17:51:57.591Z,7.00
2022-11-28T17:54:26.396Z,7.40
2022-11-28T17:56:54.407Z,7.00
2022-11-28T17:59:23.588Z,6.90
2022-11-28T18:01:51.020Z,7.10
2022-11-28T18:04:17.881Z,6.90
2022-11-28T18:06:46.659Z,7.20
2022-11-28T18:09:14.375Z,6.90
2022-11-28T18:11:42.750Z,6.90
2022-11-28T18:14:10.020Z,7.00
2022-11-28T18:16:36.873Z,7.00
2022-11-28T18:19:04.381Z,6.70
2022-11-28T18:21:32.497Z,6.90
2022-11-28T18:23:59.276Z,6.90
2022-11-28T18:26:26.856Z,6.90
2022-11-28T18:28:54.162Z,6.90
2022-11-28T18:31:24.024Z,6.90
2022-11-28T18:33:51.446Z,6.90
2022-11-28T18:36:24.315Z,6.90
2022-11-28T18:38:55.932Z,6.90
2022-11-28T18:41:23.354Z,7.00
2022-11-28T18:43:55.711Z,7.00
2022-11-28T18:46:23.480Z,6.90
2022-11-28T18:48:50.553Z,6.90
2022-11-28T18:51:26.792Z,6.90
2022-11-28T18:53:54.975Z,6.90
2022-11-28T18:56:22.894Z,7.00
2022-11-28T18:58:51.896Z,6.90
2022-11-28T19:01:25.607Z,7.10
2022-11-28T19:03:57.557Z,7.00
2022-11-28T19:06:25.125Z,7.10
2022-11-28T19:08:57.284Z,6.90
2022-11-28T19:11:24.344Z,6.90
2022-11-28T19:13:53.368Z,6.90
2022-11-28T19:16:32.425Z,7.10
2022-11-28T19:19:00.637Z,7.10
2022-11-28T19:21:33.602Z,7.00
2022-11-28T19:24:00.956Z,6.90
2022-11-28T19:26:29.948Z,6.90
2022-11-28T19:28:57.613Z,6.90
2022-11-28T19:31:27.296Z,6.90
2022-11-28T19:34:03.212Z,6.90
2022-11-28T19:36:35.140Z,6.90
2022-11-28T19:39:02.442Z,7.00
2022-11-28T19:41:30.006Z,7.00
2022-11-28T19:43:57.492Z,7.00
2022-11-28T19:46:26.376Z,7.00
2022-11-28T19:48:57.305Z,7.00
2022-11-28T19:51:26.245Z,7.00
2022-11-28T19:53:59.850Z,7.00
2022-11-28T19:56:35.628Z,7.00
2022-11-28T19:59:03.960Z,7.00
2022-11-28T20:01:44.724Z,6.90
2022-11-28T20:04:23.959Z,7.00
2022-11-28T20:06:52.572Z,7.00
2022-11-28T20:09:32.691Z,6.90
2022-11-28T20:12:02.909Z,6.90
2022-11-28T20:14:36.772Z,6.90
2022-11-28T20:17:14.849Z,6.90
2022-11-28T20:19:42.373Z,6.90
2022-11-28T20:22:12.666Z,6.90
2022-11-28T20:24:39.808Z,6.90
2022-11-28T20:27:07.252Z,6.90
2022-11-28T20:29:40.301Z,6.90
2022-11-28T20:32:14.474Z,6.90
2022-11-28T20:34:41.629Z,6.90
2022-11-28T20:37:08.515Z,7.20
2022-11-28T20:39:35.786Z,7.00
2022-11-28T20:42:02.607Z,6.90
2022-11-28T20:44:29.576Z,7.00
2022-11-28T20:46:56.497Z,7.10
2022-11-28T20:52:21.178Z,7.40
2022-11-28T20:54:48.125Z,7.30
2022-11-28T20:57:21.387Z,7.20
2022-11-28T21:02:55.700Z,7.20
2022-11-28T21:05:26.045Z,7.10
2022-11-28T21:07:59.557Z,7.00
2022-11-28T21:10:46.704Z,7.00
2022-11-28T21:13:14.121Z,7.10
2022-11-28T21:15:45.529Z,7.10
2022-11-28T21:18:14.412Z,7.00
2022-11-28T21:20:45.854Z,7.10
2022-11-28T21:23:14.664Z,7.20
2022-11-28T21:25:46.157Z,7.20
2022-11-28T21:28:13.330Z,7.30
2022-11-28T21:30:46.260Z,7.30
2022-11-28T21:33:16.876Z,7.50
2022-11-28T21:35:44.206Z,7.20
2022-11-28T21:38:11.194Z,7.20
2022-11-28T21:40:38.048Z,6.90
2022-11-28T21:43:04.989Z,7.20
2022-11-28T21:45:35.061Z,7.40
2022-11-28T21:48:02.002Z,7.30
2022-11-28T21:50:28.877Z,7.10
2022-11-28T21:52:56.003Z,7.20
2022-11-28T21:55:25.820Z,7.20
2022-11-28T21:57:52.837Z,7.10
2022-11-28T22:00:38.689Z,7.10
2022-11-28T22:03:10.935Z,7.10
2022-11-28T22:05:40.875Z,7.30
2022-11-28T22:08:08.044Z,7.10
2022-11-28T22:10:37.061Z,7.20
2022-11-28T22:13:03.925Z,7.20
2022-11-28T22:15:37.361Z,7.30
2022-11-28T22:18:12.596Z,7.40
2022-11-28T22:20:43.227Z,7.10
2022-11-28T22:23:19.822Z,7.20
2022-11-28T22:25:53.787Z,7.20
2022-11-28T22:28:20.755Z,7.20
2022-11-28T22:30:47.563Z,7.20
2022-11-28T22:33:24.081Z,7.30
2022-11-28T22:35:51.221Z,7.20
2022-11-28T22:38:18.262Z,7.20
2022-11-28T22:40:45.194Z,7.00
2022-11-28T22:43:12.498Z,7.20
2022-11-28T22:45:40.116Z,7.10
2022-11-28T22:48:09.054Z,7.20
2022-11-28T22:50:43.893Z,7.20
2022-11-28T22:53:33.802Z,7.30
2022-11-28T22:58:56.711Z,7.10
2022-11-28T23:01:34.163Z,7.20
2022-11-28T23:04:04.834Z,7.30
2022-11-28T23:06:37.731Z,7.20
2022-11-28T23:09:25.879Z,7.20
2022-11-28T23:12:04.859Z,7.20
2022-11-28T23:14:33.016Z,7.30
2022-11-28T23:17:16.576Z,7.10
2022-11-28T23:19:49.388Z,7.10
2022-11-28T23:22:25.516Z,7.10
2022-11-28T23:25:05.740Z,7.10
2022-11-28T23:27:32.944Z,7.10
2022-11-28T23:30:06.813Z,7.30
2022-11-28T23:32:43.069Z,7.30
2022-11-28T23:35:27.839Z,7.50
2022-11-28T23:37:54.942Z,7.20
2022-11-28T23:40:32.121Z,7.20
2022-11-28T23:43:03.293Z,7.20
2022-11-28T23:45:30.789Z,7.10
2022-11-28T23:47:58.033Z,7.10
2022-11-28T23:50:29.642Z,7.50
2022-11-28T23:52:56.733Z,7.20
2022-11-28T23:55:26.869Z,7.10
2022-11-28T23:57:57.831Z,7.10
